createdAt,value
2019-04-14T00:01:43.448Z,5.20
2019-04-14T00:04:16.442Z,5.20
2019-04-14T00:06:46.358Z,5.20
2019-04-14T00:09:18.350Z,5.20
2019-04-14T00:11:48.136Z,5.10
2019-04-14T00:14:18.579Z,5.10
2019-04-14T00:16:48.993Z,5.10
2019-04-14T00:19:19.553Z,5.10
2019-04-14T00:21:50.060Z,5.00
2019-04-14T00:24:20.640Z,5.00
2019-04-14T00:26:51.007Z,5.00
2019-04-14T00:29:21.640Z,5.00
2019-04-14T00:31:53.709Z,5.00
2019-04-14T00:34:40.417Z,4.90
2019-04-14T00:37:27.459Z,5.00
2019-04-14T00:40:01.871Z,4.90
2019-04-14T00:42:53.802Z,4.90
2019-04-14T00:45:38.088Z,5.00
2019-04-14T00:48:11.109Z,4.90
2019-04-14T00:50:36.858Z,5.00
2019-04-14T00:53:07.645Z,5.00
2019-04-14T00:55:37.989Z,5.00
2019-04-14T00:58:08.165Z,5.00
2019-04-14T01:00:38.671Z,5.00
2019-04-14T01:03:09.138Z,5.00
2019-04-14T01:05:39.383Z,5.00
2019-04-14T01:08:09.667Z,5.00
2019-04-14T01:10:39.251Z,5.00
2019-04-14T01:13:11.200Z,5.10
2019-04-14T01:15:51.518Z,5.10
2019-04-14T01:18:12.571Z,5.10
2019-04-14T01:20:42.827Z,5.10
2019-04-14T01:23:12.973Z,5.10
2019-04-14T01:25:43.244Z,5.10
2019-04-14T01:28:13.743Z,5.10
2019-04-14T01:30:43.742Z,5.10
2019-04-14T01:33:14.112Z,5.10
2019-04-14T01:35:44.387Z,5.20
2019-04-14T01:38:14.775Z,5.20
2019-04-14T01:40:44.571Z,5.20
2019-04-14T01:43:14.603Z,5.20
2019-04-14T01:45:46.097Z,5.20
2019-04-14T01:48:15.246Z,5.20
2019-04-14T01:51:02.683Z,5.20
2019-04-14T01:53:55.234Z,5.30
2019-04-14T01:56:42.802Z,5.30
2019-04-14T01:59:13.013Z,5.30
2019-04-14T02:01:44.068Z,5.30
2019-04-14T02:04:13.875Z,5.30
2019-04-14T02:06:44.114Z,5.30
2019-04-14T02:09:14.067Z,5.30
2019-04-14T02:11:44.530Z,5.30
2019-04-14T02:14:14.769Z,5.30
2019-04-14T02:16:50.089Z,5.30
2019-04-14T02:19:15.423Z,5.40
2019-04-14T02:21:45.614Z,5.40
2019-04-14T02:24:15.710Z,5.40
2019-04-14T02:26:45.944Z,5.40
2019-04-14T02:29:16.778Z,5.30
2019-04-14T02:32:17.279Z,5.40
2019-04-14T02:34:55.209Z,5.40
2019-04-14T02:39:54.432Z,5.40
2019-04-14T02:42:28.303Z,5.40
2019-04-14T02:49:51.504Z,5.40
2019-04-14T02:52:28.194Z,5.40
2019-04-14T02:57:26.659Z,5.40
2019-04-14T02:59:58.744Z,5.40
2019-04-14T03:02:30.678Z,5.40
2019-04-14T03:07:38.449Z,5.40
2019-04-14T03:10:20.960Z,5.40
2019-04-14T03:12:31.655Z,5.40
2019-04-14T03:15:09.535Z,5.40
2019-04-14T03:18:10.677Z,5.40
2019-04-14T03:20:47.543Z,5.40
2019-04-14T03:23:30.289Z,5.40
2019-04-14T03:25:59.673Z,5.40
2019-04-14T03:28:44.227Z,5.40
2019-04-14T03:34:10.074Z,5.40
2019-04-14T03:38:45.138Z,5.40
2019-04-14T03:41:25.748Z,5.40
2019-04-14T03:43:55.011Z,5.40
2019-04-14T03:46:25.329Z,5.40
2019-04-14T03:51:26.376Z,5.30
2019-04-14T03:53:45.785Z,5.30
2019-04-14T03:56:31.309Z,5.30
2019-04-14T03:59:01.882Z,5.30
2019-04-14T04:01:32.260Z,5.30
2019-04-14T04:04:03.152Z,5.30
2019-04-14T04:06:33.513Z,5.30
2019-04-14T04:09:06.131Z,5.30
2019-04-14T04:11:36.654Z,5.30
2019-04-14T04:14:07.470Z,5.30
2019-04-14T04:17:01.872Z,5.30
2019-04-14T04:19:45.600Z,5.30
2019-04-14T04:22:32.784Z,5.30
2019-04-14T04:25:33.500Z,5.30
2019-04-14T04:28:20.969Z,5.30
2019-04-14T04:31:09.388Z,5.30
2019-04-14T04:33:58.632Z,5.30
2019-04-14T04:36:36.221Z,5.30
2019-04-14T04:39:17.227Z,5.30
2019-04-14T04:41:47.258Z,5.30
2019-04-14T04:44:18.458Z,5.30
2019-04-14T04:46:48.400Z,5.40
2019-04-14T04:49:21.759Z,5.40
2019-04-14T04:51:48.708Z,5.40
2019-04-14T04:54:18.925Z,5.40
2019-04-14T04:56:49.179Z,5.40
2019-04-14T04:59:19.154Z,5.40
2019-04-14T05:01:49.437Z,5.50
2019-04-14T05:04:19.829Z,5.50
2019-04-14T05:07:01.495Z,5.50
2019-04-14T05:09:51.296Z,5.60
2019-04-14T05:12:26.626Z,5.60
2019-04-14T05:15:05.904Z,5.70
2019-04-14T05:17:36.657Z,5.80
2019-04-14T05:20:09.538Z,5.90
2019-04-14T05:22:39.800Z,5.90
2019-04-14T05:25:10.072Z,6.00
2019-04-14T05:27:40.820Z,6.00
2019-04-14T05:30:11.198Z,6.00
2019-04-14T05:32:41.287Z,6.00
2019-04-14T05:35:11.925Z,6.00
2019-04-14T05:37:42.138Z,6.10
2019-04-14T05:40:12.434Z,6.10
2019-04-14T05:42:42.742Z,6.20
2019-04-14T05:45:13.256Z,6.10
2019-04-14T05:47:43.647Z,6.20
2019-04-14T05:50:13.677Z,6.20
2019-04-14T05:52:43.237Z,6.30
2019-04-14T05:55:13.496Z,6.30
2019-04-14T05:57:43.791Z,6.30
2019-04-14T06:00:17.111Z,6.40
2019-04-14T06:02:46.850Z,6.40
2019-04-14T06:05:16.602Z,6.50
2019-04-14T06:07:46.177Z,6.60
2019-04-14T06:10:15.591Z,6.70
2019-04-14T06:12:45.035Z,6.70
2019-04-14T06:15:14.429Z,6.80
2019-04-14T06:17:43.832Z,6.90
2019-04-14T06:20:13.674Z,6.90
2019-04-14T06:22:43.314Z,7.00
2019-04-14T06:25:13.004Z,7.00
2019-04-14T06:27:42.312Z,7.00
2019-04-14T06:30:33.991Z,7.00
2019-04-14T06:33:09.777Z,7.00
2019-04-14T06:35:59.377Z,7.00
2019-04-14T06:38:32.168Z,7.00
2019-04-14T06:41:07.835Z,7.10
2019-04-14T06:43:48.280Z,7.10
2019-04-14T06:46:09.492Z,7.10
2019-04-14T06:48:38.724Z,7.20
2019-04-14T06:51:08.572Z,7.20
2019-04-14T06:53:38.010Z,7.20
2019-04-14T06:56:09.287Z,7.30
2019-04-14T06:58:38.837Z,7.30
2019-04-14T07:01:08.246Z,7.30
2019-04-14T07:03:37.801Z,7.40
2019-04-14T07:06:07.273Z,7.40
2019-04-14T07:08:36.614Z,7.50
2019-04-14T07:11:06.010Z,7.50
2019-04-14T07:13:35.446Z,7.50
2019-04-14T07:16:04.935Z,7.60
2019-04-14T07:18:34.374Z,7.60
2019-04-14T07:21:03.780Z,7.50
2019-04-14T07:23:33.267Z,7.60
2019-04-14T07:26:02.681Z,7.60
2019-04-14T07:28:31.989Z,7.60
2019-04-14T07:31:29.718Z,7.60
2019-04-14T07:34:16.656Z,7.70
2019-04-14T07:37:03.914Z,7.70
2019-04-14T07:40:04.623Z,7.80
2019-04-14T07:42:51.110Z,7.80
2019-04-14T07:45:45.742Z,7.90
2019-04-14T07:48:43.135Z,8.00
2019-04-14T07:51:37.215Z,8.10
2019-04-14T07:54:26.876Z,8.20
2019-04-14T07:57:13.600Z,8.40
2019-04-14T08:00:08.553Z,8.60
2019-04-14T08:02:47.100Z,8.80
2019-04-14T08:05:19.459Z,9.00
2019-04-14T08:07:50.332Z,9.20
2019-04-14T08:10:19.882Z,9.40
2019-04-14T08:12:49.386Z,9.50
2019-04-14T08:15:19.176Z,9.60
2019-04-14T08:17:48.747Z,9.80
2019-04-14T08:20:27.347Z,9.80
2019-04-14T08:22:49.237Z,9.90
2019-04-14T08:25:18.762Z,10.00
2019-04-14T08:27:48.198Z,10.10
2019-04-14T08:30:17.575Z,10.20
2019-04-14T08:32:48.859Z,10.20
2019-04-14T08:35:18.144Z,10.30
2019-04-14T08:37:47.534Z,10.30
2019-04-14T08:40:16.990Z,10.60
2019-04-14T08:42:54.637Z,10.70
2019-04-14T08:45:32.407Z,10.90
2019-04-14T08:48:13.022Z,11.00
2019-04-14T08:51:04.734Z,11.40
2019-04-14T08:53:42.935Z,11.50
2019-04-14T08:56:24.488Z,12.00
2019-04-14T08:59:00.927Z,12.40
2019-04-14T09:01:36.313Z,12.80
2019-04-14T09:04:27.594Z,13.10
2019-04-14T09:07:06.771Z,13.20
2019-04-14T09:09:42.058Z,13.30
2019-04-14T09:12:24.004Z,13.50
2019-04-14T09:14:57.274Z,13.60
2019-04-14T09:17:25.862Z,13.90
2019-04-14T09:19:55.346Z,14.10
2019-04-14T09:22:24.762Z,13.90
2019-04-14T09:24:54.160Z,13.80
2019-04-14T09:27:23.488Z,13.80
2019-04-14T09:29:52.939Z,13.70
2019-04-14T09:32:22.685Z,13.90
2019-04-14T09:34:51.913Z,14.10
2019-04-14T09:37:21.434Z,14.30
2019-04-14T09:39:50.843Z,14.40
2019-04-14T09:42:20.330Z,14.50
2019-04-14T09:44:49.950Z,14.50
2019-04-14T09:47:19.491Z,14.50
2019-04-14T09:49:51.282Z,14.70
2019-04-14T09:52:20.686Z,14.70
2019-04-14T09:54:50.317Z,14.80
2019-04-14T09:57:19.902Z,14.80
2019-04-14T09:59:49.813Z,14.90
2019-04-14T10:02:20.750Z,15.10
2019-04-14T10:04:50.315Z,15.20
2019-04-14T10:07:19.703Z,15.30
2019-04-14T10:09:49.551Z,15.40
2019-04-14T10:12:19.232Z,15.40
2019-04-14T10:14:49.142Z,15.40
2019-04-14T10:17:18.605Z,15.50
2019-04-14T10:19:48.116Z,15.50
2019-04-14T10:22:17.528Z,15.70
2019-04-14T10:24:50.094Z,15.80
2019-04-14T10:27:19.615Z,16.00
2019-04-14T10:29:48.949Z,15.90
2019-04-14T10:32:18.327Z,15.60
2019-04-14T10:34:47.839Z,15.80
2019-04-14T10:37:17.159Z,15.80
2019-04-14T10:39:46.605Z,15.90
2019-04-14T10:42:15.962Z,16.10
2019-04-14T10:44:46.974Z,16.30
2019-04-14T10:47:16.358Z,16.30
2019-04-14T10:49:45.742Z,16.30
2019-04-14T10:52:15.049Z,16.30
2019-04-14T10:54:44.377Z,16.30
2019-04-14T10:57:13.781Z,16.30
2019-04-14T10:59:43.693Z,16.40
2019-04-14T11:02:13.227Z,16.50
2019-04-14T11:04:42.655Z,16.60
2019-04-14T11:07:20.011Z,16.70
2019-04-14T11:09:49.374Z,16.80
2019-04-14T11:12:18.876Z,16.80
2019-04-14T11:14:48.499Z,16.90
2019-04-14T11:17:17.923Z,16.70
2019-04-14T11:19:47.501Z,16.60
2019-04-14T11:22:18.953Z,16.60
2019-04-14T11:24:48.431Z,16.60
2019-04-14T11:27:17.730Z,16.60
2019-04-14T11:29:47.576Z,16.70
2019-04-14T11:32:51.299Z,16.90
2019-04-14T11:35:42.488Z,16.90
2019-04-14T11:38:15.552Z,17.00
2019-04-14T11:40:50.229Z,17.20
2019-04-14T11:43:19.565Z,17.20
2019-04-14T11:45:48.946Z,17.10
2019-04-14T11:48:18.800Z,17.00
2019-04-14T11:50:48.185Z,17.20
2019-04-14T11:53:17.621Z,17.00
2019-04-14T11:55:48.568Z,17.30
2019-04-14T11:58:18.145Z,17.10
2019-04-14T12:01:05.829Z,17.00
2019-04-14T12:03:45.724Z,17.00
2019-04-14T12:06:33.130Z,17.00
2019-04-14T12:09:36.654Z,16.90
2019-04-14T12:12:08.229Z,17.00
2019-04-14T12:14:37.635Z,16.90
2019-04-14T12:17:08.428Z,16.70
2019-04-14T12:19:37.797Z,16.60
2019-04-14T12:22:08.524Z,16.60
2019-04-14T12:24:38.542Z,16.70
2019-04-14T12:27:07.968Z,16.70
2019-04-14T12:29:37.437Z,16.60
2019-04-14T12:32:08.457Z,16.70
2019-04-14T12:34:37.894Z,16.70
2019-04-14T12:37:07.365Z,16.60
2019-04-14T12:39:36.820Z,16.70
2019-04-14T12:42:37.568Z,16.70
2019-04-14T12:45:26.469Z,16.60
2019-04-14T12:48:19.151Z,16.40
2019-04-14T12:50:55.552Z,16.50
2019-04-14T12:53:25.136Z,16.40
2019-04-14T12:55:54.551Z,16.40
2019-04-14T12:58:35.692Z,16.40
2019-04-14T13:01:09.193Z,16.50
2019-04-14T13:03:41.887Z,16.50
2019-04-14T13:06:11.374Z,16.40
2019-04-14T13:08:40.751Z,16.40
2019-04-14T13:11:10.161Z,16.40
2019-04-14T13:13:39.560Z,16.30
2019-04-14T13:16:09.026Z,16.20
2019-04-14T13:18:38.408Z,16.20
2019-04-14T13:21:09.944Z,16.20
2019-04-14T13:23:39.262Z,16.20
2019-04-14T13:26:08.846Z,16.20
2019-04-14T13:28:38.144Z,16.20
2019-04-14T13:31:07.689Z,16.20
2019-04-14T13:33:37.246Z,16.10
2019-04-14T13:36:07.355Z,16.20
2019-04-14T13:38:36.807Z,16.00
2019-04-14T13:41:06.270Z,16.00
2019-04-14T13:43:35.671Z,15.90
2019-04-14T13:46:05.278Z,15.90
2019-04-14T13:48:34.726Z,15.90
2019-04-14T13:51:04.093Z,15.90
2019-04-14T13:53:34.173Z,15.90
2019-04-14T13:56:03.762Z,15.90
2019-04-14T13:58:33.316Z,15.80
2019-04-14T14:01:02.751Z,15.80
2019-04-14T14:03:32.248Z,15.70
2019-04-14T14:06:01.547Z,15.70
2019-04-14T14:08:30.978Z,15.60
2019-04-14T14:11:08.568Z,15.50
2019-04-14T14:14:06.138Z,15.60
2019-04-14T14:16:58.719Z,15.50
2019-04-14T14:19:33.246Z,15.50
2019-04-14T14:22:10.159Z,15.50
2019-04-14T14:24:52.728Z,15.40
2019-04-14T14:27:22.281Z,15.40
2019-04-14T14:29:51.663Z,15.30
2019-04-14T14:32:28.134Z,15.30
2019-04-14T14:34:57.487Z,15.20
2019-04-14T14:37:26.878Z,15.20
2019-04-14T14:39:56.357Z,15.20
2019-04-14T14:42:26.127Z,15.10
2019-04-14T14:45:20.030Z,15.00
2019-04-14T14:48:03.444Z,15.00
2019-04-14T14:50:41.081Z,15.00
2019-04-14T14:53:12.330Z,14.80
2019-04-14T14:55:41.670Z,14.80
2019-04-14T14:58:11.269Z,14.70
2019-04-14T15:00:40.847Z,14.80
2019-04-14T15:03:10.577Z,14.80
2019-04-14T15:05:40.269Z,14.60
2019-04-14T15:08:09.626Z,14.60
2019-04-14T15:10:39.252Z,14.60
2019-04-14T15:13:08.744Z,14.70
2019-04-14T15:15:38.225Z,14.60
2019-04-14T15:18:08.765Z,14.50
2019-04-14T15:20:38.092Z,14.40
2019-04-14T15:23:08.500Z,14.50
2019-04-14T15:25:37.930Z,14.30
2019-04-14T15:28:07.268Z,14.20
2019-04-14T15:30:36.889Z,14.20
2019-04-14T15:33:09.329Z,14.20
2019-04-14T15:35:38.864Z,14.20
2019-04-14T15:38:08.287Z,14.20
2019-04-14T15:40:37.779Z,14.20
2019-04-14T15:43:07.337Z,14.10
2019-04-14T15:45:36.830Z,14.10
2019-04-14T15:48:06.634Z,14.00
2019-04-14T15:50:36.033Z,14.00
2019-04-14T15:53:05.349Z,14.00
2019-04-14T15:55:35.040Z,13.90
2019-04-14T15:58:29.331Z,13.90
2019-04-14T16:01:20.559Z,13.80
2019-04-14T16:04:09.078Z,13.70
2019-04-14T16:06:55.382Z,13.70
2019-04-14T16:09:53.107Z,13.70
2019-04-14T16:12:40.342Z,13.60
2019-04-14T16:15:26.116Z,13.60
2019-04-14T16:18:17.676Z,13.50
2019-04-14T16:20:47.449Z,13.40
2019-04-14T16:23:17.488Z,13.30
2019-04-14T16:26:02.097Z,13.30
2019-04-14T16:28:36.750Z,13.30
2019-04-14T16:31:25.262Z,13.20
2019-04-14T16:34:03.996Z,13.20
2019-04-14T16:36:34.646Z,13.10
2019-04-14T16:39:06.235Z,13.10
2019-04-14T16:41:35.688Z,13.10
2019-04-14T16:44:07.059Z,13.10
2019-04-14T16:46:36.807Z,13.00
2019-04-14T16:49:06.283Z,12.90
2019-04-14T16:51:42.200Z,12.80
2019-04-14T16:54:20.990Z,12.80
2019-04-14T16:57:09.889Z,12.70
2019-04-14T16:59:39.310Z,12.70
2019-04-14T17:02:11.233Z,12.60
2019-04-14T17:04:39.750Z,12.50
2019-04-14T17:07:09.245Z,12.50
2019-04-14T17:09:38.630Z,12.40
2019-04-14T17:12:10.239Z,12.40
2019-04-14T17:14:44.220Z,12.40
2019-04-14T17:17:29.444Z,12.30
2019-04-14T17:20:10.897Z,12.30
2019-04-14T17:22:53.538Z,12.20
2019-04-14T17:25:28.236Z,12.10
2019-04-14T17:28:16.626Z,12.10
2019-04-14T17:30:51.662Z,12.00
2019-04-14T17:33:25.637Z,11.90
2019-04-14T17:36:05.068Z,11.70
2019-04-14T17:38:42.801Z,11.70
2019-04-14T17:41:34.241Z,11.60
2019-04-14T17:44:09.252Z,11.60
2019-04-14T17:47:03.608Z,11.60
2019-04-14T17:49:50.853Z,11.50
2019-04-14T17:52:47.856Z,11.40
2019-04-14T17:55:26.269Z,11.40
2019-04-14T17:58:14.744Z,11.40
2019-04-14T18:01:02.076Z,11.30
2019-04-14T18:03:38.912Z,11.10
2019-04-14T18:06:27.814Z,11.00
2019-04-14T18:09:16.239Z,11.00
2019-04-14T18:12:10.744Z,10.90
2019-04-14T18:14:45.487Z,10.80
2019-04-14T18:17:32.775Z,10.80
2019-04-14T18:20:08.138Z,10.70
2019-04-14T18:22:37.629Z,10.60
2019-04-14T18:25:07.590Z,10.60
2019-04-14T18:27:47.590Z,10.40
2019-04-14T18:30:27.358Z,10.40
2019-04-14T18:33:02.611Z,10.40
2019-04-14T18:35:37.168Z,10.30
2019-04-14T18:38:28.702Z,10.20
2019-04-14T18:41:15.951Z,10.20
2019-04-14T18:43:56.836Z,10.20
2019-04-14T18:46:51.466Z,10.10
2019-04-14T18:49:41.870Z,10.00
2019-04-14T18:52:37.266Z,9.90
2019-04-14T18:55:25.696Z,9.80
2019-04-14T18:58:20.172Z,9.80
2019-04-14T19:00:56.346Z,9.70
2019-04-14T19:03:25.781Z,9.70
2019-04-14T19:05:55.302Z,9.60
2019-04-14T19:08:24.922Z,9.60
2019-04-14T19:11:07.213Z,9.50
2019-04-14T19:13:37.141Z,9.50
2019-04-14T19:16:19.729Z,9.30
2019-04-14T19:18:51.954Z,9.30
2019-04-14T19:21:24.393Z,9.30
2019-04-14T19:23:53.863Z,9.20
2019-04-14T19:26:23.395Z,9.20
2019-04-14T19:28:52.961Z,9.10
2019-04-14T19:31:22.364Z,9.10
2019-04-14T19:33:52.117Z,9.00
2019-04-14T19:36:21.721Z,9.00
2019-04-14T19:38:51.242Z,8.90
2019-04-14T19:41:20.765Z,8.80
2019-04-14T19:43:50.308Z,8.80
2019-04-14T19:46:19.818Z,8.80
2019-04-14T19:48:49.309Z,8.70
2019-04-14T19:51:18.685Z,8.70
2019-04-14T19:53:48.441Z,8.70
2019-04-14T19:56:18.094Z,8.60
2019-04-14T19:58:47.453Z,8.60
2019-04-14T20:01:16.865Z,8.50
2019-04-14T20:03:46.505Z,8.50
2019-04-14T20:06:15.966Z,8.50
2019-04-14T20:08:45.326Z,8.40
2019-04-14T20:11:15.110Z,8.40
2019-04-14T20:13:46.952Z,8.40
2019-04-14T20:16:34.328Z,8.40
2019-04-14T20:19:21.684Z,8.30
2019-04-14T20:22:28.240Z,8.30
2019-04-14T20:25:17.511Z,8.20
2019-04-14T20:28:03.865Z,8.20
2019-04-14T20:30:42.822Z,8.10
2019-04-14T20:33:12.239Z,8.10
2019-04-14T20:35:41.595Z,8.00
2019-04-14T20:38:10.805Z,8.00
2019-04-14T20:40:40.248Z,8.00
2019-04-14T20:43:09.886Z,8.00
2019-04-14T20:45:39.267Z,7.90
2019-04-14T20:48:08.868Z,7.90
2019-04-14T20:50:38.557Z,7.80
2019-04-14T20:53:08.079Z,7.80
2019-04-14T20:55:46.872Z,7.80
2019-04-14T20:58:08.717Z,7.80
2019-04-14T21:00:38.181Z,7.70
2019-04-14T21:03:19.962Z,7.70
2019-04-14T21:06:11.245Z,7.70
2019-04-14T21:08:58.848Z,7.70
2019-04-14T21:11:35.898Z,7.60
2019-04-14T21:14:28.005Z,7.60
2019-04-14T21:17:16.419Z,7.50
2019-04-14T21:20:08.142Z,7.50
2019-04-14T21:22:45.639Z,7.50
2019-04-14T21:25:40.175Z,7.50
2019-04-14T21:28:28.631Z,7.50
2019-04-14T21:31:15.183Z,7.40
2019-04-14T21:34:06.340Z,7.40
2019-04-14T21:36:58.080Z,7.40
2019-04-14T21:39:50.700Z,7.40
2019-04-14T21:42:20.943Z,7.30
2019-04-14T21:44:50.400Z,7.30
2019-04-14T21:47:21.018Z,7.20
2019-04-14T21:49:50.560Z,7.20
2019-04-14T21:52:36.419Z,7.20
2019-04-14T21:55:06.850Z,7.20
2019-04-14T21:58:13.868Z,7.20
2019-04-14T22:01:45.443Z,7.20
2019-04-14T22:04:32.850Z,7.10
2019-04-14T22:07:16.001Z,7.00
2019-04-14T22:09:46.608Z,7.00
2019-04-14T22:12:16.319Z,7.00
2019-04-14T22:14:45.909Z,7.00
2019-04-14T22:17:15.302Z,6.90
2019-04-14T22:19:47.857Z,6.90
2019-04-14T22:22:17.665Z,6.90
2019-04-14T22:24:47.197Z,6.90
2019-04-14T22:27:16.895Z,6.90
2019-04-14T22:29:46.562Z,6.80
2019-04-14T22:32:16.244Z,6.80
2019-04-14T22:34:45.681Z,6.80
2019-04-14T22:37:16.808Z,6.80
2019-04-14T22:39:46.607Z,6.70
2019-04-14T22:42:15.996Z,6.70
2019-04-14T22:44:45.506Z,6.70
2019-04-14T22:47:15.446Z,6.70
2019-04-14T22:49:44.832Z,6.60
2019-04-14T22:52:14.224Z,6.60
2019-04-14T22:54:43.687Z,6.60
2019-04-14T22:57:13.109Z,6.50
2019-04-14T22:59:42.786Z,6.50
2019-04-14T23:02:18.962Z,6.50
2019-04-14T23:04:56.842Z,6.50
2019-04-14T23:07:34.081Z,6.50
2019-04-14T23:10:21.545Z,6.50
2019-04-14T23:13:05.147Z,6.40
2019-04-14T23:15:44.284Z,6.40
2019-04-14T23:18:39.662Z,6.40
2019-04-14T23:21:37.286Z,6.40
2019-04-14T23:24:15.996Z,6.40
2019-04-14T23:26:52.307Z,6.30
2019-04-14T23:29:18.376Z,6.30
2019-04-14T23:31:49.323Z,6.30
2019-04-14T23:34:19.013Z,6.20
2019-04-14T23:36:48.596Z,6.30
2019-04-14T23:39:18.030Z,6.20
2019-04-14T23:41:47.812Z,6.20
2019-04-14T23:44:17.408Z,6.10
2019-04-14T23:46:47.048Z,6.10
2019-04-14T23:49:16.713Z,6.10
2019-04-14T23:51:46.175Z,6.10
2019-04-14T23:54:16.561Z,6.00
2019-04-14T23:56:45.992Z,6.00
2019-04-14T23:59:15.678Z,6.00
